createdAt,value
2018-12-04T00:00:34.819Z,85.77
2018-12-04T00:01:35.099Z,86.35
2018-12-04T00:02:34.865Z,85.77
2018-12-04T00:03:34.887Z,86.25
2018-12-04T00:04:35.160Z,86.35
2018-12-04T00:05:35.183Z,86.25
2018-12-04T00:06:34.965Z,86.54
2018-12-04T00:07:34.974Z,85.97
2018-12-04T00:08:34.985Z,86.44
2018-12-04T00:09:35.271Z,86.73
2018-12-04T00:10:35.292Z,86.44
2018-12-04T00:11:35.049Z,86.44
2018-12-04T00:12:35.074Z,86.44
2018-12-04T00:13:35.355Z,86.44
2018-12-04T00:14:35.150Z,86.25
2018-12-04T00:15:35.131Z,86.44
2018-12-04T00:16:35.155Z,86.25
2018-12-04T00:17:35.177Z,86.44
2018-12-04T00:18:35.460Z,86.44
2018-12-04T00:19:35.485Z,86.25
2018-12-04T00:20:35.240Z,86.44
2018-12-04T00:21:35.512Z,86.44
2018-12-04T00:22:35.547Z,86.63
2018-12-04T00:23:35.304Z,86.25
2018-12-04T00:24:35.319Z,86.73
2018-12-04T00:25:35.612Z,86.44
2018-12-04T00:26:35.631Z,86.44
2018-12-04T00:27:35.643Z,86.44
2018-12-04T00:28:35.416Z,86.25
2018-12-04T00:29:35.426Z,86.25
2018-12-04T00:30:35.447Z,86.63
2018-12-04T00:31:35.468Z,86.54
2018-12-04T00:32:35.490Z,86.16
2018-12-04T00:33:35.506Z,86.44
2018-12-04T00:34:35.524Z,86.35
2018-12-04T00:35:35.811Z,86.44
2018-12-04T00:36:35.573Z,86.44
2018-12-04T00:37:35.849Z,86.35
2018-12-04T00:38:35.876Z,86.92
2018-12-04T00:39:35.894Z,86.98
2018-12-04T00:40:35.654Z,86.73
2018-12-04T00:41:35.685Z,86.82
2018-12-04T00:42:35.956Z,86.82
2018-12-04T00:43:35.719Z,86.73
2018-12-04T00:44:35.742Z,86.63
2018-12-04T00:45:36.026Z,86.73
2018-12-04T00:46:35.777Z,86.69
2018-12-04T00:47:35.803Z,86.78
2018-12-04T00:48:36.089Z,86.49
2018-12-04T00:49:35.848Z,86.98
2018-12-04T00:50:36.121Z,87.02
2018-12-04T00:51:35.882Z,87.07
2018-12-04T00:52:35.913Z,86.98
2018-12-04T00:53:35.933Z,87.07
2018-12-04T00:54:36.218Z,87.45
2018-12-04T00:55:35.969Z,87.07
2018-12-04T00:56:36.002Z,87.35
2018-12-04T00:57:36.013Z,87.35
2018-12-04T00:58:36.289Z,87.64
2018-12-04T00:59:36.056Z,87.26
2018-12-04T01:00:36.070Z,87.35
2018-12-04T01:01:36.095Z,87.45
2018-12-04T01:02:36.118Z,87.16
2018-12-04T01:03:36.140Z,87.07
2018-12-04T01:04:36.160Z,87.26
2018-12-04T01:05:36.440Z,87.26
2018-12-04T01:06:36.192Z,87.35
2018-12-04T01:07:36.215Z,87.35
2018-12-04T01:08:36.292Z,87.26
2018-12-04T01:09:36.256Z,87.64
2018-12-04T01:10:36.276Z,87.54
2018-12-04T01:11:36.299Z,87.07
2018-12-04T01:12:36.577Z,87.35
2018-12-04T01:13:36.343Z,87.16
2018-12-04T01:14:36.621Z,87.35
2018-12-04T01:15:36.382Z,87.54
2018-12-04T01:16:36.659Z,87.54
2018-12-04T01:17:36.436Z,87.16
2018-12-04T01:18:36.705Z,87.54
2018-12-04T01:19:36.730Z,87.16
2018-12-04T01:20:36.752Z,87.16
2018-12-04T01:21:36.507Z,87.54
2018-12-04T01:22:36.787Z,87.54
2018-12-04T01:23:36.812Z,87.35
2018-12-04T01:24:36.578Z,87.16
2018-12-04T01:25:36.593Z,87.26
2018-12-04T01:26:36.608Z,87.35
2018-12-04T01:27:36.630Z,87.16
2018-12-04T01:28:36.690Z,87.35
2018-12-04T01:29:36.931Z,87.26
2018-12-04T01:30:36.691Z,87.16
2018-12-04T01:31:36.974Z,87.16
2018-12-04T01:32:36.731Z,87.26
2018-12-04T01:33:37.015Z,87.45
2018-12-04T01:34:36.774Z,87.64
2018-12-04T01:35:37.054Z,87.26
2018-12-04T01:36:36.818Z,87.26
2018-12-04T01:37:37.098Z,86.98
2018-12-04T01:38:36.862Z,87.35
2018-12-04T01:39:37.136Z,87.54
2018-12-04T01:40:36.906Z,86.98
2018-12-04T01:41:37.182Z,86.98
2018-12-04T01:42:37.196Z,87.35
2018-12-04T01:43:36.962Z,87.26
2018-12-04T01:44:36.983Z,87.07
2018-12-04T01:45:37.266Z,87.35
2018-12-04T01:46:37.285Z,87.26
2018-12-04T01:47:37.040Z,87.26
2018-12-04T01:48:37.327Z,87.26
2018-12-04T01:49:37.088Z,87.26
2018-12-04T01:50:37.370Z,87.35
2018-12-04T01:51:37.124Z,87.35
2018-12-04T01:52:37.406Z,87.07
2018-12-04T01:53:37.166Z,87.54
2018-12-04T01:54:37.192Z,87.26
2018-12-04T01:55:37.465Z,87.26
2018-12-04T01:56:37.497Z,87.26
2018-12-04T01:57:37.507Z,87.35
2018-12-04T01:58:37.273Z,87.26
2018-12-04T01:59:37.571Z,87.16
2018-12-04T02:00:37.313Z,86.98
2018-12-04T02:01:37.610Z,87.12
2018-12-04T02:02:37.612Z,86.98
2018-12-04T02:03:37.630Z,87.16
2018-12-04T02:04:37.649Z,87.16
2018-12-04T02:05:37.429Z,87.02
2018-12-04T02:06:37.436Z,87.16
2018-12-04T02:07:37.455Z,87.07
2018-12-04T02:08:37.485Z,87.16
2018-12-04T02:09:37.759Z,86.93
2018-12-04T02:10:37.521Z,87.02
2018-12-04T02:11:37.814Z,86.83
2018-12-04T02:12:37.563Z,86.78
2018-12-04T02:13:37.579Z,86.98
2018-12-04T02:14:37.857Z,86.98
2018-12-04T02:15:37.621Z,87.16
2018-12-04T02:16:37.643Z,87.02
2018-12-04T02:17:37.921Z,87.12
2018-12-04T02:18:37.686Z,87.16
2018-12-04T02:19:37.967Z,87.21
2018-12-04T02:20:37.723Z,87.02
2018-12-04T02:21:37.743Z,87.02
2018-12-04T02:22:38.025Z,86.74
2018-12-04T02:23:38.058Z,87.26
2018-12-04T02:24:38.067Z,87.12
2018-12-04T02:25:37.827Z,87.21
2018-12-04T02:26:38.118Z,86.93
2018-12-04T02:27:38.128Z,86.93
2018-12-04T02:28:37.895Z,86.93
2018-12-04T02:29:38.168Z,87.12
2018-12-04T02:30:38.238Z,87.12
2018-12-04T02:31:37.952Z,87.02
2018-12-04T02:32:38.249Z,87.02
2018-12-04T02:33:38.001Z,86.93
2018-12-04T02:34:38.026Z,87.12
2018-12-04T02:35:38.033Z,86.74
2018-12-04T02:36:38.308Z,86.83
2018-12-04T02:37:38.072Z,87.02
2018-12-04T02:38:38.095Z,87.02
2018-12-04T02:39:38.373Z,87.02
2018-12-04T02:40:38.408Z,86.74
2018-12-04T02:41:38.191Z,87.02
2018-12-04T02:42:38.436Z,87.21
2018-12-04T02:43:38.213Z,87.02
2018-12-04T02:44:38.218Z,87.12
2018-12-04T02:45:38.569Z,86.83
2018-12-04T02:46:38.263Z,87.02
2018-12-04T02:47:38.287Z,87.02
2018-12-04T02:48:38.557Z,86.93
2018-12-04T02:49:38.327Z,87.02
2018-12-04T02:50:38.347Z,87.02
2018-12-04T02:51:38.362Z,86.83
2018-12-04T02:52:38.655Z,87.31
2018-12-04T02:53:38.407Z,87.31
2018-12-04T02:54:38.425Z,86.93
2018-12-04T02:55:38.703Z,87.31
2018-12-04T02:56:38.466Z,87.12
2018-12-04T02:57:38.490Z,86.45
2018-12-04T02:58:38.505Z,87.21
2018-12-04T02:59:38.551Z,86.26
2018-12-04T03:00:38.559Z,86.45
2018-12-04T03:01:38.826Z,87.31
2018-12-04T03:02:38.592Z,86.45
2018-12-04T03:03:38.879Z,87.31
2018-12-04T03:04:38.881Z,87.31
2018-12-04T03:05:38.656Z,86.74
2018-12-04T03:06:38.939Z,86.26
2018-12-04T03:07:38.687Z,87.31
2018-12-04T03:08:38.724Z,86.93
2018-12-04T03:09:39.000Z,86.93
2018-12-04T03:10:39.020Z,87.21
2018-12-04T03:11:38.772Z,86.45
2018-12-04T03:12:39.054Z,86.65
2018-12-04T03:13:39.068Z,87.21
2018-12-04T03:14:38.831Z,86.74
2018-12-04T03:15:38.859Z,86.65
2018-12-04T03:16:38.870Z,86.45
2018-12-04T03:17:38.896Z,86.65
2018-12-04T03:18:39.169Z,86.74
2018-12-04T03:19:39.200Z,86.55
2018-12-04T03:20:38.958Z,86.26
2018-12-04T03:21:38.982Z,86.65
2018-12-04T03:22:39.277Z,86.65
2018-12-04T03:23:39.021Z,86.65
2018-12-04T03:24:39.034Z,86.74
2018-12-04T03:25:39.337Z,86.74
2018-12-04T03:26:39.078Z,86.26
2018-12-04T03:27:39.372Z,86.65
2018-12-04T03:28:39.383Z,86.65
2018-12-04T03:29:39.144Z,86.65
2018-12-04T03:30:39.419Z,86.65
2018-12-04T03:31:39.192Z,86.65
2018-12-04T03:32:39.211Z,86.26
2018-12-04T03:33:39.481Z,86.65
2018-12-04T03:34:39.503Z,86.55
2018-12-04T03:35:39.257Z,86.45
2018-12-04T03:36:39.538Z,86.74
2018-12-04T03:37:39.308Z,86.65
2018-12-04T03:38:39.321Z,86.65
2018-12-04T03:39:39.600Z,86.74
2018-12-04T03:40:39.369Z,86.65
2018-12-04T03:41:39.388Z,86.55
2018-12-04T03:42:39.405Z,86.65
2018-12-04T03:43:39.427Z,86.55
2018-12-04T03:44:39.452Z,86.65
2018-12-04T03:45:39.726Z,86.65
2018-12-04T03:46:39.749Z,86.65
2018-12-04T03:47:39.761Z,86.55
2018-12-04T03:48:39.523Z,86.65
2018-12-04T03:49:39.552Z,86.55
2018-12-04T03:50:39.570Z,86.65
2018-12-04T03:51:39.858Z,86.65
2018-12-04T03:52:39.603Z,86.83
2018-12-04T03:53:39.895Z,86.55
2018-12-04T03:54:39.905Z,86.65
2018-12-04T03:55:39.675Z,86.55
2018-12-04T03:56:39.950Z,86.55
2018-12-04T03:57:39.712Z,86.45
2018-12-04T03:58:39.732Z,86.55
2018-12-04T03:59:39.751Z,86.65
2018-12-04T04:00:40.044Z,86.65
2018-12-04T04:01:39.793Z,86.65
2018-12-04T04:02:39.809Z,86.55
2018-12-04T04:03:39.846Z,86.65
2018-12-04T04:04:40.110Z,86.65
2018-12-04T04:05:40.127Z,86.74
2018-12-04T04:06:40.170Z,86.45
2018-12-04T04:07:40.177Z,86.65
2018-12-04T04:08:39.937Z,86.65
2018-12-04T04:09:39.959Z,86.65
2018-12-04T04:10:40.230Z,86.65
2018-12-04T04:11:40.013Z,86.65
2018-12-04T04:12:40.273Z,86.65
2018-12-04T04:13:40.328Z,86.45
2018-12-04T04:14:40.308Z,86.65
2018-12-04T04:15:40.078Z,86.45
2018-12-04T04:16:40.369Z,86.55
2018-12-04T04:17:40.386Z,86.65
2018-12-04T04:18:40.395Z,86.65
2018-12-04T04:19:40.410Z,86.55
2018-12-04T04:20:40.442Z,86.55
2018-12-04T04:21:40.193Z,86.45
2018-12-04T04:22:40.473Z,86.45
2018-12-04T04:23:40.490Z,86.36
2018-12-04T04:24:40.511Z,86.74
2018-12-04T04:25:40.534Z,86.74
2018-12-04T04:26:40.552Z,86.74
2018-12-04T04:27:40.574Z,86.36
2018-12-04T04:28:40.344Z,86.65
2018-12-04T04:29:40.616Z,86.65
2018-12-04T04:30:40.635Z,86.74
2018-12-04T04:31:40.655Z,86.74
2018-12-04T04:32:40.679Z,86.74
2018-12-04T04:33:40.441Z,86.45
2018-12-04T04:34:40.458Z,86.93
2018-12-04T04:35:40.487Z,86.55
2018-12-04T04:36:40.496Z,86.83
2018-12-04T04:37:40.519Z,86.74
2018-12-04T04:38:40.802Z,86.45
2018-12-04T04:39:40.558Z,86.74
2018-12-04T04:40:40.840Z,86.74
2018-12-04T04:41:40.611Z,86.74
2018-12-04T04:42:40.890Z,86.55
2018-12-04T04:43:40.643Z,86.93
2018-12-04T04:44:40.662Z,86.74
2018-12-04T04:45:40.678Z,86.83
2018-12-04T04:46:40.711Z,87.02
2018-12-04T04:47:40.724Z,87.02
2018-12-04T04:48:41.024Z,87.02
2018-12-04T04:49:40.764Z,86.93
2018-12-04T04:50:41.049Z,86.93
2018-12-04T04:51:40.815Z,86.83
2018-12-04T04:52:40.822Z,86.93
2018-12-04T04:53:40.853Z,86.93
2018-12-04T04:54:40.889Z,86.93
2018-12-04T04:55:41.141Z,86.83
2018-12-04T04:56:41.160Z,87.02
2018-12-04T04:57:41.182Z,86.93
2018-12-04T04:58:41.202Z,86.93
2018-12-04T04:59:40.972Z,86.93
2018-12-04T05:00:41.251Z,86.93
2018-12-04T05:01:41.011Z,86.93
2018-12-04T05:02:41.282Z,87.02
2018-12-04T05:03:41.050Z,86.93
2018-12-04T05:04:41.329Z,87.02
2018-12-04T05:05:41.344Z,87.02
2018-12-04T05:06:41.375Z,86.74
2018-12-04T05:07:41.387Z,86.93
2018-12-04T05:08:41.417Z,86.74
2018-12-04T05:09:41.171Z,87.02
2018-12-04T05:10:41.442Z,86.93
2018-12-04T05:11:41.471Z,86.93
2018-12-04T05:12:41.486Z,86.93
2018-12-04T05:13:41.514Z,87.02
2018-12-04T05:14:41.525Z,86.93
2018-12-04T05:15:41.293Z,86.83
2018-12-04T05:16:41.562Z,86.88
2018-12-04T05:17:41.332Z,86.74
2018-12-04T05:18:41.614Z,87.02
2018-12-04T05:19:41.373Z,86.65
2018-12-04T05:20:41.385Z,86.74
2018-12-04T05:21:41.410Z,86.74
2018-12-04T05:22:41.432Z,87.02
2018-12-04T05:23:41.447Z,86.88
2018-12-04T05:24:41.468Z,86.69
2018-12-04T05:25:41.499Z,86.69
2018-12-04T05:26:41.507Z,86.6
2018-12-04T05:27:41.530Z,86.88
2018-12-04T05:28:41.551Z,86.51
2018-12-04T05:29:41.839Z,86.79
2018-12-04T05:30:41.591Z,86.79
2018-12-04T05:31:41.883Z,86.69
2018-12-04T05:32:41.898Z,86.41
2018-12-04T05:33:41.926Z,86.51
2018-12-04T05:34:41.940Z,86.69
2018-12-04T05:35:41.963Z,86.51
2018-12-04T05:36:41.722Z,86.6
2018-12-04T05:37:41.737Z,86.51
2018-12-04T05:38:41.760Z,86.51
2018-12-04T05:39:41.770Z,86.6
2018-12-04T05:40:42.052Z,86.51
2018-12-04T05:41:42.070Z,86.6
2018-12-04T05:42:42.089Z,86.6
2018-12-04T05:43:42.125Z,86.51
2018-12-04T05:44:41.872Z,86.41
2018-12-04T05:45:42.166Z,86.51
2018-12-04T05:46:42.170Z,86.6
2018-12-04T05:47:42.228Z,86.51
2018-12-04T05:48:42.218Z,86.51
2018-12-04T05:49:42.231Z,86.6
2018-12-04T05:50:42.258Z,86.6
2018-12-04T05:51:42.013Z,86.69
2018-12-04T05:52:42.301Z,86.51
2018-12-04T05:53:42.050Z,86.41
2018-12-04T05:54:42.330Z,86.41
2018-12-04T05:55:42.355Z,86.69
2018-12-04T05:56:42.370Z,86.51
2018-12-04T05:57:42.133Z,86.69
2018-12-04T05:58:42.164Z,86.6
2018-12-04T05:59:42.427Z,86.6
2018-12-04T06:00:42.454Z,86.69
2018-12-04T06:01:42.471Z,86.51
2018-12-04T06:02:42.232Z,86.6
2018-12-04T06:03:43.101Z,86.69
2018-12-04T06:04:42.280Z,86.6
2018-12-04T06:05:42.548Z,86.51
2018-12-04T06:06:42.569Z,86.51
2018-12-04T06:07:42.601Z,86.6
2018-12-04T06:08:42.624Z,87.27
2018-12-04T06:09:42.377Z,86.69
2018-12-04T06:10:42.400Z,86.41
2018-12-04T06:11:42.670Z,86.88
2018-12-04T06:12:42.701Z,86.41
2018-12-04T06:13:42.721Z,86.41
2018-12-04T06:14:42.483Z,86.88
2018-12-04T06:15:42.490Z,86.41
2018-12-04T06:16:42.783Z,86.69
2018-12-04T06:17:42.803Z,86.88
2018-12-04T06:18:42.558Z,86.79
2018-12-04T06:19:42.577Z,86.41
2018-12-04T06:20:42.595Z,86.22
2018-12-04T06:21:42.874Z,87.17
2018-12-04T06:22:42.903Z,86.22
2018-12-04T06:23:42.663Z,86.69
2018-12-04T06:24:42.670Z,86.69
2018-12-04T06:25:42.964Z,87.07
2018-12-04T06:26:42.715Z,86.41
2018-12-04T06:27:42.732Z,86.98
2018-12-04T06:28:43.014Z,86.98
2018-12-04T06:29:42.770Z,86.98
2018-12-04T06:30:42.791Z,87.07
2018-12-04T06:31:42.820Z,87.07
2018-12-04T06:32:42.842Z,86.98
2018-12-04T06:33:43.110Z,86.79
2018-12-04T06:34:43.133Z,86.98
2018-12-04T06:35:42.891Z,86.79
2018-12-04T06:36:42.911Z,87.07
2018-12-04T06:37:42.937Z,86.88
2018-12-04T06:38:43.208Z,86.98
2018-12-04T06:39:42.976Z,86.88
2018-12-04T06:40:42.992Z,86.79
2018-12-04T06:41:43.267Z,87.07
2018-12-04T06:42:43.299Z,86.84
2018-12-04T06:43:43.304Z,87.03
2018-12-04T06:44:49.236Z,86.94
2018-12-04T06:45:43.090Z,87.07
2018-12-04T06:46:43.365Z,87.07
2018-12-04T06:47:43.391Z,86.94
2018-12-04T06:48:43.155Z,86.94
2018-12-04T06:49:43.431Z,87.03
2018-12-04T06:50:43.193Z,87.23
2018-12-04T06:51:43.208Z,86.94
2018-12-04T06:52:43.244Z,87.13
2018-12-04T06:53:43.520Z,86.84
2018-12-04T06:54:43.268Z,86.94
2018-12-04T06:55:43.290Z,86.75
2018-12-04T06:56:43.314Z,86.84
2018-12-04T06:57:43.594Z,86.94
2018-12-04T06:58:43.349Z,86.94
2018-12-04T06:59:43.375Z,86.94
2018-12-04T07:00:43.659Z,86.94
2018-12-04T07:01:43.408Z,86.84
2018-12-04T07:02:43.683Z,87.03
2018-12-04T07:03:43.721Z,86.94
2018-12-04T07:04:43.482Z,87.13
2018-12-04T07:05:43.748Z,87.13
2018-12-04T07:06:43.505Z,86.94
2018-12-04T07:07:43.786Z,87.03
2018-12-04T07:08:44.635Z,86.94
2018-12-04T07:09:43.570Z,86.84
2018-12-04T07:10:43.844Z,86.94
2018-12-04T07:11:43.605Z,86.94
2018-12-04T07:12:43.882Z,86.75
2018-12-04T07:13:43.645Z,86.84
2018-12-04T07:14:43.664Z,86.84
2018-12-04T07:15:43.690Z,86.84
2018-12-04T07:16:43.961Z,86.75
2018-12-04T07:17:43.987Z,86.94
2018-12-04T07:18:44.002Z,87.03
2018-12-04T07:19:44.032Z,86.94
2018-12-04T07:20:44.041Z,87.13
2018-12-04T07:21:44.062Z,86.94
2018-12-04T07:22:44.079Z,86.75
2018-12-04T07:23:43.845Z,87.03
2018-12-04T07:24:44.121Z,87.03
2018-12-04T07:25:43.882Z,87.03
2018-12-04T07:26:44.155Z,86.94
2018-12-04T07:27:43.918Z,86.94
2018-12-04T07:28:43.949Z,86.94
2018-12-04T07:29:43.961Z,87.03
2018-12-04T07:30:43.981Z,86.94
2018-12-04T07:31:43.999Z,86.94
2018-12-04T07:32:44.283Z,86.94
2018-12-04T07:33:44.309Z,87.13
2018-12-04T07:34:44.316Z,87.03
2018-12-04T07:35:44.081Z,86.84
2018-12-04T07:36:44.365Z,86.94
2018-12-04T07:37:44.172Z,86.84
2018-12-04T07:38:44.138Z,87.13
2018-12-04T07:39:44.413Z,86.65
2018-12-04T07:40:44.177Z,86.94
2018-12-04T07:41:44.208Z,87.03
2018-12-04T07:42:44.216Z,87.03
2018-12-04T07:43:44.495Z,86.94
2018-12-04T07:44:44.255Z,86.65
2018-12-04T07:45:44.277Z,86.94
2018-12-04T07:46:44.304Z,87.03
2018-12-04T07:47:44.322Z,86.94
2018-12-04T07:48:44.334Z,87.03
2018-12-04T07:49:44.615Z,86.65
2018-12-04T07:50:44.630Z,86.84
2018-12-04T07:51:44.655Z,86.75
2018-12-04T07:52:44.421Z,87.13
2018-12-04T07:53:44.687Z,86.55
2018-12-04T07:54:44.710Z,86.94
2018-12-04T07:55:44.483Z,86.36
2018-12-04T07:56:44.489Z,87.03
2018-12-04T07:57:44.775Z,86.36
2018-12-04T07:58:44.531Z,86.65
2018-12-04T07:59:44.809Z,86.27
2018-12-04T08:00:44.826Z,86.36
2018-12-04T08:01:44.586Z,86.75
2018-12-04T08:02:44.877Z,86.75
2018-12-04T08:03:44.903Z,86.55
2018-12-04T08:04:44.646Z,86.65
2018-12-04T08:05:44.674Z,86.08
2018-12-04T08:06:44.687Z,86.65
2018-12-04T08:07:44.975Z,86.08
2018-12-04T08:08:44.982Z,86.08
2018-12-04T08:09:44.745Z,86.27
2018-12-04T08:10:45.020Z,86.08
2018-12-04T08:11:44.797Z,86.08
2018-12-04T08:12:45.075Z,86.27
2018-12-04T08:13:45.092Z,86.18
2018-12-04T08:14:44.845Z,86.08
2018-12-04T08:15:45.137Z,86.27
2018-12-04T08:16:44.891Z,86.27
2018-12-04T08:17:45.245Z,86.36
2018-12-04T08:18:45.181Z,86.36
2018-12-04T08:19:45.201Z,85.89
2018-12-04T08:20:44.959Z,86.36
2018-12-04T08:21:45.244Z,85.6
2018-12-04T08:22:45.014Z,85.6
2018-12-04T08:23:45.022Z,85.6
2018-12-04T08:24:45.039Z,86.08
2018-12-04T08:25:45.319Z,85.8
2018-12-04T08:26:45.081Z,85.89
2018-12-04T08:27:45.357Z,86.08
2018-12-04T08:28:45.376Z,86.08
2018-12-04T08:29:45.407Z,86.18
2018-12-04T08:30:45.163Z,86.18
2018-12-04T08:31:45.179Z,85.8
2018-12-04T08:32:45.466Z,86.18
2018-12-04T08:33:45.222Z,86.18
2018-12-04T08:34:45.236Z,86.08
2018-12-04T08:35:45.255Z,86.08
2018-12-04T08:36:45.279Z,85.99
2018-12-04T08:37:45.562Z,85.89
2018-12-04T08:38:45.571Z,86.08
2018-12-04T08:39:45.334Z,85.8
2018-12-04T08:40:45.613Z,85.6
2018-12-04T08:41:45.371Z,85.6
2018-12-04T08:42:45.390Z,85.8
2018-12-04T08:43:45.415Z,85.6
2018-12-04T08:44:45.705Z,85.7
2018-12-04T08:45:45.716Z,85.8
2018-12-04T08:46:45.470Z,85.8
2018-12-04T08:47:45.495Z,85.7
2018-12-04T08:48:45.778Z,85.8
2018-12-04T08:49:45.787Z,85.6
2018-12-04T08:50:45.819Z,85.51
2018-12-04T08:51:45.828Z,85.51
2018-12-04T08:52:45.589Z,85.8
2018-12-04T08:53:45.611Z,84.84
2018-12-04T08:54:45.632Z,85.13
2018-12-04T08:55:45.699Z,85.22
2018-12-04T08:56:45.923Z,84.94
2018-12-04T08:57:45.686Z,85.6
2018-12-04T08:58:45.965Z,85.22
2018-12-04T08:59:45.734Z,85.6
2018-12-04T09:00:46.003Z,85.22
2018-12-04T09:01:45.774Z,85.41
2018-12-04T09:02:45.793Z,85.03
2018-12-04T09:03:46.060Z,85.03
2018-12-04T09:04:45.821Z,85.22
2018-12-04T09:05:45.853Z,84.94
2018-12-04T09:06:45.921Z,85.32
2018-12-04T09:07:46.153Z,84.65
2018-12-04T09:08:46.253Z,85.03
2018-12-04T09:09:46.194Z,84.94
2018-12-04T09:10:46.202Z,85.03
2018-12-04T09:11:46.226Z,85.32
2018-12-04T09:12:45.990Z,85.22
2018-12-04T09:13:46.005Z,85.13
2018-12-04T09:14:46.279Z,85.13
2018-12-04T09:15:46.048Z,85.22
2018-12-04T09:16:46.811Z,85.41
2018-12-04T09:17:46.080Z,84.65
2018-12-04T09:18:46.388Z,84.84
2018-12-04T09:19:46.394Z,84.65
2018-12-04T09:20:46.261Z,84.84
2018-12-04T09:21:46.517Z,84.84
2018-12-04T09:22:46.246Z,84.75
2018-12-04T09:23:46.548Z,85.22
2018-12-04T09:24:46.418Z,85.03
2018-12-04T09:25:46.677Z,84.75
2018-12-04T09:26:46.599Z,84.75
2018-12-04T09:27:46.685Z,84.84
2018-12-04T09:28:46.595Z,84.94
2018-12-04T09:29:46.371Z,84.56
2018-12-04T09:30:46.594Z,84.65
2018-12-04T09:31:46.614Z,84.65
2018-12-04T09:32:46.380Z,85.03
2018-12-04T09:33:46.753Z,84.36
2018-12-04T09:34:46.422Z,84.65
2018-12-04T09:35:46.691Z,84.46
2018-12-04T09:36:46.455Z,84.36
2018-12-04T09:37:46.476Z,84.36
2018-12-04T09:38:46.819Z,84.36
2018-12-04T09:39:46.518Z,83.98
2018-12-04T09:40:46.805Z,84.27
2018-12-04T09:41:46.559Z,84.36
2018-12-04T09:42:46.569Z,84.46
2018-12-04T09:43:46.854Z,84.56
2018-12-04T09:44:46.618Z,83.7
2018-12-04T09:45:46.890Z,83.89
2018-12-04T09:46:46.650Z,83.7
2018-12-04T09:47:46.931Z,84.08
2018-12-04T09:48:46.696Z,83.7
2018-12-04T09:49:46.969Z,83.8
2018-12-04T09:50:46.987Z,83.89
2018-12-04T09:51:46.751Z,83.61
2018-12-04T09:52:47.037Z,83.61
2018-12-04T09:53:51.863Z,83.8
2018-12-04T09:54:46.809Z,83.89
2018-12-04T09:55:46.827Z,83.8
2018-12-04T09:56:46.850Z,83.32
2018-12-04T09:57:46.870Z,83.61
2018-12-04T09:58:46.896Z,83.89
2018-12-04T09:59:46.906Z,83.89
2018-12-04T10:00:47.186Z,83.61
2018-12-04T10:01:47.206Z,83.7
2018-12-04T10:02:47.228Z,83.7
2018-12-04T10:03:47.246Z,83.7
2018-12-04T10:04:47.002Z,83.7
2018-12-04T10:05:47.283Z,83.41
2018-12-04T10:06:47.299Z,83.89
2018-12-04T10:07:47.066Z,83.61
2018-12-04T10:08:47.345Z,83.51
2018-12-04T10:09:47.101Z,83.8
2018-12-04T10:10:47.378Z,83.32
2018-12-04T10:11:47.141Z,82.93
2018-12-04T10:12:47.285Z,83.41
2018-12-04T10:13:47.439Z,82.79
2018-12-04T10:14:47.470Z,83.07
2018-12-04T10:15:47.477Z,82.98
2018-12-04T10:16:47.239Z,83.07
2018-12-04T10:17:47.266Z,82.89
2018-12-04T10:18:49.884Z,82.89
2018-12-04T10:19:47.558Z,82.89
2018-12-04T10:20:47.315Z,83.17
2018-12-04T10:21:47.596Z,82.79
2018-12-04T10:22:47.355Z,82.89
2018-12-04T10:23:47.382Z,82.69
2018-12-04T10:24:47.707Z,82.41
2018-12-04T10:25:47.423Z,82.89
2018-12-04T10:26:47.440Z,82.31
2018-12-04T10:27:47.455Z,82.69
2018-12-04T10:28:47.750Z,82.31
2018-12-04T10:29:47.506Z,82.21
2018-12-04T10:30:47.784Z,82.31
2018-12-04T10:31:47.541Z,82.31
2018-12-04T10:32:47.587Z,82.6
2018-12-04T10:33:47.609Z,81.74
2018-12-04T10:34:47.854Z,82.03
2018-12-04T10:35:47.882Z,82.03
2018-12-04T10:36:47.635Z,81.93
2018-12-04T10:37:47.652Z,82.03
2018-12-04T10:38:47.673Z,82.03
2018-12-04T10:39:47.698Z,82.03
2018-12-04T10:40:47.978Z,82.12
2018-12-04T10:41:47.734Z,81.55
2018-12-04T10:42:48.015Z,82.03
2018-12-04T10:43:48.041Z,81.46
2018-12-04T10:44:47.797Z,81.65
2018-12-04T10:45:47.819Z,81.78
2018-12-04T10:46:47.831Z,81.65
2018-12-04T10:47:48.109Z,81.97
2018-12-04T10:48:47.871Z,81.59
2018-12-04T10:49:47.891Z,81.59
2018-12-04T10:50:48.171Z,81.49
2018-12-04T10:51:47.931Z,81.49
2018-12-04T10:52:48.216Z,81.12
2018-12-04T10:53:48.225Z,81.3
2018-12-04T10:54:48.001Z,81.36
2018-12-04T10:55:48.274Z,81.36
2018-12-04T10:56:48.036Z,81.59
2018-12-04T10:57:48.058Z,81.36
2018-12-04T10:58:48.344Z,81.55
2018-12-04T10:59:48.096Z,81.4
2018-12-04T11:00:48.112Z,81.26
2018-12-04T11:01:48.131Z,81.78
2018-12-04T11:02:48.406Z,81.46
2018-12-04T11:03:48.445Z,81.46
2018-12-04T11:04:48.196Z,81.84
2018-12-04T11:05:48.209Z,81.65
2018-12-04T11:06:48.496Z,81.26
2018-12-04T11:07:48.258Z,81.46
2018-12-04T11:08:48.539Z,81.84
2018-12-04T11:09:48.297Z,81.93
2018-12-04T11:10:48.577Z,82.03
2018-12-04T11:11:48.327Z,81.74
2018-12-04T11:12:48.605Z,81.93
2018-12-04T11:13:48.627Z,81.74
2018-12-04T11:14:48.651Z,81.65
2018-12-04T11:15:48.679Z,81.74
2018-12-04T11:16:48.448Z,81.65
2018-12-04T11:17:48.451Z,81.65
2018-12-04T11:18:48.727Z,81.46
2018-12-04T11:19:48.499Z,82.21
2018-12-04T11:20:48.507Z,82.31
2018-12-04T11:21:48.526Z,82.31
2018-12-04T11:22:48.553Z,82.21
2018-12-04T11:23:48.824Z,81.74
2018-12-04T11:24:48.592Z,82.21
2018-12-04T11:25:48.867Z,82.12
2018-12-04T11:26:48.891Z,82.31
2018-12-04T11:27:48.648Z,81.93
2018-12-04T11:28:48.919Z,82.31
2018-12-04T11:29:48.684Z,82.31
2018-12-04T11:30:48.960Z,82.12
2018-12-04T11:31:48.993Z,82.12
2018-12-04T11:32:48.747Z,82.21
2018-12-04T11:33:49.031Z,82.03
2018-12-04T11:34:48.784Z,82.03
2018-12-04T11:35:48.810Z,81.93
2018-12-04T11:36:49.083Z,82.03
2018-12-04T11:37:48.848Z,82.03
2018-12-04T11:38:49.122Z,82.03
2018-12-04T11:39:48.881Z,82.12
2018-12-04T11:40:48.902Z,81.84
2018-12-04T11:41:48.922Z,81.84
2018-12-04T11:42:48.942Z,82.12
2018-12-04T11:43:49.218Z,82.21
2018-12-04T11:44:48.995Z,81.93
2018-12-04T11:45:49.260Z,82.03
2018-12-04T11:46:49.020Z,82.03
2018-12-04T11:47:49.057Z,82.12
2018-12-04T11:48:49.061Z,82.12
2018-12-04T11:49:49.098Z,82.12
2018-12-04T11:50:49.364Z,82.12
2018-12-04T11:51:49.382Z,81.46
2018-12-04T11:52:49.143Z,82.21
2018-12-04T11:53:49.417Z,81.36
2018-12-04T11:54:49.179Z,81.65
2018-12-04T11:55:49.508Z,81.65
2018-12-04T11:56:49.222Z,81.65
2018-12-04T11:57:49.249Z,81.65
2018-12-04T11:58:49.260Z,81.65
2018-12-04T11:59:49.307Z,81.65
2018-12-04T12:00:49.560Z,81.68
2018-12-04T12:01:49.327Z,81.26
2018-12-04T12:02:49.337Z,81.55
2018-12-04T12:03:49.359Z,81.07
2018-12-04T12:04:49.387Z,81.3
2018-12-04T12:05:49.656Z,81.59
2018-12-04T12:06:49.430Z,80.73
2018-12-04T12:07:49.696Z,81.02
2018-12-04T12:08:49.457Z,81.46
2018-12-04T12:09:49.482Z,80.92
2018-12-04T12:10:49.769Z,80.83
2018-12-04T12:11:49.806Z,80.64
2018-12-04T12:12:49.797Z,80.83
2018-12-04T12:13:49.557Z,80.83
2018-12-04T12:14:49.835Z,80.83
2018-12-04T12:15:49.864Z,80.83
2018-12-04T12:16:49.627Z,80.92
2018-12-04T12:17:49.638Z,80.83
2018-12-04T12:18:49.657Z,80.92
2018-12-04T12:19:49.983Z,81.12
2018-12-04T12:20:49.966Z,81.02
2018-12-04T12:21:49.974Z,80.64
2018-12-04T12:22:49.997Z,80.54
2018-12-04T12:23:49.763Z,80.54
2018-12-04T12:24:50.041Z,80.73
2018-12-04T12:25:49.794Z,80.35
2018-12-04T12:26:49.825Z,80.26
2018-12-04T12:27:50.094Z,80.16
2018-12-04T12:28:49.854Z,80.26
2018-12-04T12:29:49.879Z,80.07
2018-12-04T12:30:50.158Z,80.26
2018-12-04T12:31:50.186Z,80.44
2018-12-04T12:32:50.204Z,80.44
2018-12-04T12:33:49.961Z,80.44
2018-12-04T12:34:50.233Z,80.07
2018-12-04T12:35:50.264Z,80.44
2018-12-04T12:36:50.020Z,80.69
2018-12-04T12:37:50.041Z,80.69
2018-12-04T12:38:50.310Z,80.35
2018-12-04T12:39:50.347Z,80.83
2018-12-04T12:40:50.097Z,80.98
2018-12-04T12:41:50.374Z,80.88
2018-12-04T12:42:50.136Z,80.79
2018-12-04T12:43:50.413Z,80.79
2018-12-04T12:44:50.432Z,80.88
2018-12-04T12:45:50.465Z,81.26
2018-12-04T12:46:50.475Z,81.46
2018-12-04T12:47:50.233Z,81.17
2018-12-04T12:48:50.525Z,81.17
2018-12-04T12:49:50.280Z,81.26
2018-12-04T12:50:50.563Z,81.46
2018-12-04T12:51:50.317Z,81.46
2018-12-04T12:52:50.594Z,81.46
2018-12-04T12:53:50.614Z,81.36
2018-12-04T12:54:50.372Z,81.59